sensor_id;sensor_type;location;lat;lon;timestamp;noise_LAeq;noise_LA_min;noise_LA_max;noise_LA01;noise_LA95
67320;Laerm;57665;51.436;5.978;2023-03-14T00:00:14;40.77;39.34;52.02;;
67320;Laerm;57665;51.436;5.978;2023-03-14T00:00:25;40.88;39.06;49.16;;
67320;Laerm;57665;51.436;5.978;2023-03-14T00:00:35;40.30;39.17;44.03;;
67320;Laerm;57665;51.436;5.978;2023-03-14T00:00:45;45.45;40.03;56.41;;
67320;Laerm;57665;51.436;5.978;2023-03-14T00:00:58;43.12;41.29;53.48;;
67320;Laerm;57665;51.436;5.978;2023-03-14T00:01:20;44.16;40.55;56.35;;
67320;Laerm;57665;51.436;5.978;2023-03-14T00:01:30;53.15;41.12;72.01;;
67320;Laerm;57665;51.436;5.978;2023-03-14T00:01:43;44.88;39.15;59.09;;
67320;Laerm;57665;51.436;5.978;2023-03-14T00:01:53;40.50;39.28;42.04;;
67320;Laerm;57665;51.436;5.978;2023-03-14T00:02:03;40.36;39.44;41.31;;
67320;Laerm;57665;51.436;5.978;2023-03-14T00:02:13;40.70;39.55;45.44;;
67320;Laerm;57665;51.436;5.978;2023-03-14T00:02:24;42.92;39.48;57.05;;
67320;Laerm;57665;51.436;5.978;2023-03-14T00:02:37;40.25;39.35;41.87;;
67320;Laerm;57665;51.436;5.978;2023-03-14T00:03:13;40.97;39.07;49.30;;
67320;Laerm;57665;51.436;5.978;2023-03-14T00:03:27;40.56;39.17;44.10;;
67320;Laerm;57665;51.436;5.978;2023-03-14T00:03:38;41.29;39.24;51.22;;
67320;Laerm;57665;51.436;5.978;2023-03-14T00:04:09;40.43;39.27;42.85;;
67320;Laerm;57665;51.436;5.978;2023-03-14T00:04:18;40.36;39.28;44.46;;
67320;Laerm;57665;51.436;5.978;2023-03-14T00:04:29;40.38;39.22;41.63;;
67320;Laerm;57665;51.436;5.978;2023-03-14T00:04:48;41.26;39.25;47.54;;
67320;Laerm;57665;51.436;5.978;2023-03-14T00:04:58;41.68;39.27;50.19;;
67320;Laerm;57665;51.436;5.978;2023-03-14T00:05:17;40.60;39.02;47.73;;
67320;Laerm;57665;51.436;5.978;2023-03-14T00:05:28;41.23;39.61;46.69;;
67320;Laerm;57665;51.436;5.978;2023-03-14T00:05:38;42.88;39.91;53.34;;
67320;Laerm;57665;51.436;5.978;2023-03-14T00:05:48;40.65;39.51;42.34;;
67320;Laerm;57665;51.436;5.978;2023-03-14T00:06:01;49.69;40.32;62.95;;
67320;Laerm;57665;51.436;5.978;2023-03-14T00:06:12;44.51;40.65;55.91;;
67320;Laerm;57665;51.436;5.978;2023-03-14T00:06:28;43.34;40.02;53.36;;
67320;Laerm;57665;51.436;5.978;2023-03-14T00:06:39;41.62;39.96;47.81;;
67320;Laerm;57665;51.436;5.978;2023-03-14T00:06:49;42.60;40.40;50.47;;
67320;Laerm;57665;51.436;5.978;2023-03-14T00:07:02;43.64;40.07;57.94;;
67320;Laerm;57665;51.436;5.978;2023-03-14T00:07:13;42.42;39.62;53.91;;
67320;Laerm;57665;51.436;5.978;2023-03-14T00:07:23;40.81;39.86;42.50;;
67320;Laerm;57665;51.436;5.978;2023-03-14T00:07:38;41.10;39.69;43.14;;
67320;Laerm;57665;51.436;5.978;2023-03-14T00:07:48;41.63;39.89;43.32;;
67320;Laerm;57665;51.436;5.978;2023-03-14T00:07:59;41.79;40.05;46.82;;
67320;Laerm;57665;51.436;5.978;2023-03-14T00:08:09;41.56;39.22;49.43;;
67320;Laerm;57665;51.436;5.978;2023-03-14T00:08:19;43.55;40.20;56.88;;
67320;Laerm;57665;51.436;5.978;2023-03-14T00:08:31;41.50;39.58;47.56;;
67320;Laerm;57665;51.436;5.978;2023-03-14T00:08:42;40.52;39.41;41.97;;
67320;Laerm;57665;51.436;5.978;2023-03-14T00:08:52;40.46;39.18;43.39;;
67320;Laerm;57665;51.436;5.978;2023-03-14T00:09:04;40.56;39.29;41.93;;
67320;Laerm;57665;51.436;5.978;2023-03-14T00:09:14;41.82;39.79;52.03;;
67320;Laerm;57665;51.436;5.978;2023-03-14T00:09:24;41.82;39.40;48.31;;
67320;Laerm;57665;51.436;5.978;2023-03-14T00:09:36;42.08;39.32;52.39;;
67320;Laerm;57665;51.436;5.978;2023-03-14T00:09:46;40.61;39.45;45.08;;
67320;Laerm;57665;51.436;5.978;2023-03-14T00:10:00;40.60;39.46;42.20;;
67320;Laerm;57665;51.436;5.978;2023-03-14T00:10:11;40.77;39.82;41.63;;
67320;Laerm;57665;51.436;5.978;2023-03-14T00:10:22;42.04;40.03;47.46;;
67320;Laerm;57665;51.436;5.978;2023-03-14T00:10:32;58.97;40.97;69.20;;
67320;Laerm;57665;51.436;5.978;2023-03-14T00:10:42;65.79;62.46;72.16;;
67320;Laerm;57665;51.436;5.978;2023-03-14T00:10:53;69.29;55.88;76.58;;
67320;Laerm;57665;51.436;5.978;2023-03-14T00:11:04;46.41;40.84;55.68;;
67320;Laerm;57665;51.436;5.978;2023-03-14T00:11:15;42.98;39.47;53.97;;
67320;Laerm;57665;51.436;5.978;2023-03-14T00:11:26;40.36;39.28;41.50;;
67320;Laerm;57665;51.436;5.978;2023-03-14T00:11:36;40.67;39.64;41.68;;
67320;Laerm;57665;51.436;5.978;2023-03-14T00:11:46;42.23;40.24;49.49;;
67320;Laerm;57665;51.436;5.978;2023-03-14T00:11:57;41.69;40.07;44.44;;
67320;Laerm;57665;51.436;5.978;2023-03-14T00:12:07;40.76;39.00;45.05;;
67320;Laerm;57665;51.436;5.978;2023-03-14T00:12:17;42.78;39.36;54.74;;
67320;Laerm;57665;51.436;5.978;2023-03-14T00:12:27;40.60;39.53;43.25;;
67320;Laerm;57665;51.436;5.978;2023-03-14T00:12:38;42.56;39.66;54.62;;
67320;Laerm;57665;51.436;5.978;2023-03-14T00:12:48;42.52;39.17;52.81;;
67320;Laerm;57665;51.436;5.978;2023-03-14T00:12:58;40.50;39.39;42.30;;
67320;Laerm;57665;51.436;5.978;2023-03-14T00:13:08;41.61;40.15;45.14;;
67320;Laerm;57665;51.436;5.978;2023-03-14T00:13:19;47.23;40.89;58.87;;
67320;Laerm;57665;51.436;5.978;2023-03-14T00:13:29;45.60;41.21;58.57;;
67320;Laerm;57665;51.436;5.978;2023-03-14T00:13:39;41.24;39.62;44.79;;
67320;Laerm;57665;51.436;5.978;2023-03-14T00:13:50;42.98;39.91;52.80;;
67320;Laerm;57665;51.436;5.978;2023-03-14T00:14:00;42.78;40.05;54.66;;
67320;Laerm;57665;51.436;5.978;2023-03-14T00:14:11;43.10;40.75;50.31;;
67320;Laerm;57665;51.436;5.978;2023-03-14T00:14:21;46.71;40.28;63.87;;
67320;Laerm;57665;51.436;5.978;2023-03-14T00:14:41;42.34;39.83;55.99;;
67320;Laerm;57665;51.436;5.978;2023-03-14T00:14:52;41.58;39.39;49.72;;
67320;Laerm;57665;51.436;5.978;2023-03-14T00:15:17;41.90;39.59;52.49;;
67320;Laerm;57665;51.436;5.978;2023-03-14T00:15:28;41.55;39.59;50.50;;
67320;Laerm;57665;51.436;5.978;2023-03-14T00:15:50;41.86;39.07;53.92;;
67320;Laerm;57665;51.436;5.978;2023-03-14T00:16:10;40.44;39.18;41.97;;
67320;Laerm;57665;51.436;5.978;2023-03-14T00:16:21;43.25;39.72;56.73;;
67320;Laerm;57665;51.436;5.978;2023-03-14T00:16:31;42.61;40.70;48.66;;
67320;Laerm;57665;51.436;5.978;2023-03-14T00:16:45;41.84;40.25;45.71;;
67320;Laerm;57665;51.436;5.978;2023-03-14T00:16:55;41.59;39.78;44.88;;
67320;Laerm;57665;51.436;5.978;2023-03-14T00:17:05;40.88;39.69;42.69;;
67320;Laerm;57665;51.436;5.978;2023-03-14T00:17:15;41.73;40.10;47.49;;
67320;Laerm;57665;51.436;5.978;2023-03-14T00:17:26;44.02;40.58;53.78;;
67320;Laerm;57665;51.436;5.978;2023-03-14T00:17:36;42.61;39.38;56.25;;
67320;Laerm;57665;51.436;5.978;2023-03-14T00:17:47;41.37;39.69;46.68;;
67320;Laerm;57665;51.436;5.978;2023-03-14T00:17:57;40.49;39.49;42.63;;
67320;Laerm;57665;51.436;5.978;2023-03-14T00:18:07;41.17;39.68;44.76;;
67320;Laerm;57665;51.436;5.978;2023-03-14T00:18:18;69.43;43.87;75.49;;
67320;Laerm;57665;51.436;5.978;2023-03-14T00:18:29;68.45;50.81;75.06;;
67320;Laerm;57665;51.436;5.978;2023-03-14T00:18:40;47.89;41.13;57.88;;
67320;Laerm;57665;51.436;5.978;2023-03-14T00:18:50;41.61;39.70;49.86;;
67320;Laerm;57665;51.436;5.978;2023-03-14T00:19:00;41.02;39.49;45.92;;
67320;Laerm;57665;51.436;5.978;2023-03-14T00:19:11;40.40;39.18;44.11;;
67320;Laerm;57665;51.436;5.978;2023-03-14T00:19:21;43.11;39.66;56.71;;
67320;Laerm;57665;51.436;5.978;2023-03-14T00:19:31;42.88;39.85;52.43;;
67320;Laerm;57665;51.436;5.978;2023-03-14T00:19:41;44.32;39.79;56.36;;
67320;Laerm;57665;51.436;5.978;2023-03-14T00:19:51;40.85;39.67;45.95;;
67320;Laerm;57665;51.436;5.978;2023-03-14T00:20:04;41.06;39.71;46.99;;
67320;Laerm;57665;51.436;5.978;2023-03-14T00:20:18;41.26;39.45;49.31;;
67320;Laerm;57665;51.436;5.978;2023-03-14T00:20:28;47.16;40.12;61.03;;
67320;Laerm;57665;51.436;5.978;2023-03-14T00:20:38;44.04;40.27;54.01;;
67320;Laerm;57665;51.436;5.978;2023-03-14T00:20:48;42.70;40.70;49.42;;
67320;Laerm;57665;51.436;5.978;2023-03-14T00:20:59;41.23;39.78;42.53;;
67320;Laerm;57665;51.436;5.978;2023-03-14T00:21:10;41.28;39.67;47.19;;
67320;Laerm;57665;51.436;5.978;2023-03-14T00:21:20;40.54;39.23;43.24;;
67320;Laerm;57665;51.436;5.978;2023-03-14T00:21:33;41.07;39.52;48.55;;
67320;Laerm;57665;51.436;5.978;2023-03-14T00:21:43;40.51;39.28;43.79;;
67320;Laerm;57665;51.436;5.978;2023-03-14T00:21:56;40.26;39.21;41.24;;
67320;Laerm;57665;51.436;5.978;2023-03-14T00:22:09;41.83;39.56;49.22;;
67320;Laerm;57665;51.436;5.978;2023-03-14T00:22:20;44.41;39.32;54.55;;
67320;Laerm;57665;51.436;5.978;2023-03-14T00:22:30;40.50;39.38;45.36;;
67320;Laerm;57665;51.436;5.978;2023-03-14T00:22:41;40.59;39.30;44.27;;
67320;Laerm;57665;51.436;5.978;2023-03-14T00:22:51;40.27;38.99;41.65;;
67320;Laerm;57665;51.436;5.978;2023-03-14T00:23:02;40.07;38.79;41.04;;
67320;Laerm;57665;51.436;5.978;2023-03-14T00:23:12;40.41;39.31;45.51;;
67320;Laerm;57665;51.436;5.978;2023-03-14T00:23:23;40.38;39.42;42.11;;
67320;Laerm;57665;51.436;5.978;2023-03-14T00:23:36;40.39;39.30;41.62;;
67320;Laerm;57665;51.436;5.978;2023-03-14T00:23:47;40.40;39.15;42.13;;
67320;Laerm;57665;51.436;5.978;2023-03-14T00:23:57;40.43;39.27;42.61;;
67320;Laerm;57665;51.436;5.978;2023-03-14T00:24:10;40.16;38.78;41.71;;
67320;Laerm;57665;51.436;5.978;2023-03-14T00:24:21;40.06;38.80;41.17;;
67320;Laerm;57665;51.436;5.978;2023-03-14T00:24:31;39.99;38.96;40.95;;
67320;Laerm;57665;51.436;5.978;2023-03-14T00:24:47;40.13;38.99;42.47;;
67320;Laerm;57665;51.436;5.978;2023-03-14T00:24:57;40.44;39.11;46.74;;
67320;Laerm;57665;51.436;5.978;2023-03-14T00:25:08;40.11;39.11;41.25;;
67320;Laerm;57665;51.436;5.978;2023-03-14T00:25:25;40.15;39.01;41.25;;
67320;Laerm;57665;51.436;5.978;2023-03-14T00:25:48;40.11;39.01;41.01;;
67320;Laerm;57665;51.436;5.978;2023-03-14T00:26:02;40.73;38.98;47.41;;
67320;Laerm;57665;51.436;5.978;2023-03-14T00:26:16;49.42;39.75;64.56;;
67320;Laerm;57665;51.436;5.978;2023-03-14T00:26:32;40.62;39.14;47.44;;
67320;Laerm;57665;51.436;5.978;2023-03-14T00:26:42;41.18;39.55;50.72;;
67320;Laerm;57665;51.436;5.978;2023-03-14T00:26:59;40.23;38.99;41.56;;
67320;Laerm;57665;51.436;5.978;2023-03-14T00:27:09;40.29;39.02;43.83;;
67320;Laerm;57665;51.436;5.978;2023-03-14T00:27:19;40.86;39.43;48.60;;
67320;Laerm;57665;51.436;5.978;2023-03-14T00:27:32;40.69;39.67;45.80;;
67320;Laerm;57665;51.436;5.978;2023-03-14T00:27:42;40.95;39.65;45.22;;
67320;Laerm;57665;51.436;5.978;2023-03-14T00:27:53;42.97;39.40;53.56;;
67320;Laerm;57665;51.436;5.978;2023-03-14T00:28:03;41.01;39.58;49.00;;
67320;Laerm;57665;51.436;5.978;2023-03-14T00:28:13;40.61;39.00;46.76;;
67320;Laerm;57665;51.436;5.978;2023-03-14T00:28:23;41.42;39.33;48.12;;
67320;Laerm;57665;51.436;5.978;2023-03-14T00:28:34;43.04;39.87;54.93;;
67320;Laerm;57665;51.436;5.978;2023-03-14T00:28:44;40.53;39.27;41.70;;
67320;Laerm;57665;51.436;5.978;2023-03-14T00:28:54;41.41;39.16;53.90;;
67320;Laerm;57665;51.436;5.978;2023-03-14T00:29:05;41.44;39.39;53.20;;
67320;Laerm;57665;51.436;5.978;2023-03-14T00:29:18;40.33;39.29;41.80;;
67320;Laerm;57665;51.436;5.978;2023-03-14T00:29:32;40.22;38.85;41.40;;
67320;Laerm;57665;51.436;5.978;2023-03-14T00:29:42;40.32;39.15;41.67;;
67320;Laerm;57665;51.436;5.978;2023-03-14T00:30:05;40.41;39.22;41.48;;
67320;Laerm;57665;51.436;5.978;2023-03-14T00:30:18;40.69;39.30;51.95;;
67320;Laerm;57665;51.436;5.978;2023-03-14T00:30:28;42.35;39.44;54.94;;
67320;Laerm;57665;51.436;5.978;2023-03-14T00:30:39;41.84;39.86;52.40;;
67320;Laerm;57665;51.436;5.978;2023-03-14T00:30:49;40.99;39.43;48.07;;
67320;Laerm;57665;51.436;5.978;2023-03-14T00:31:01;40.44;39.47;43.02;;
67320;Laerm;57665;51.436;5.978;2023-03-14T00:31:13;41.03;39.52;47.53;;
67320;Laerm;57665;51.436;5.978;2023-03-14T00:31:23;41.02;39.55;46.00;;
67320;Laerm;57665;51.436;5.978;2023-03-14T00:31:37;40.69;39.47;48.08;;
67320;Laerm;57665;51.436;5.978;2023-03-14T00:31:49;41.02;39.28;48.48;;
67320;Laerm;57665;51.436;5.978;2023-03-14T00:31:59;41.09;39.51;47.21;;
67320;Laerm;57665;51.436;5.978;2023-03-14T00:32:10;41.01;39.39;50.41;;
67320;Laerm;57665;51.436;5.978;2023-03-14T00:32:20;41.83;39.31;49.94;;
67320;Laerm;57665;51.436;5.978;2023-03-14T00:32:30;40.32;39.35;42.41;;
67320;Laerm;57665;51.436;5.978;2023-03-14T00:32:49;40.37;39.15;43.84;;
67320;Laerm;57665;51.436;5.978;2023-03-14T00:32:59;40.32;39.03;41.49;;
67320;Laerm;57665;51.436;5.978;2023-03-14T00:33:10;42.65;39.30;50.36;;
67320;Laerm;57665;51.436;5.978;2023-03-14T00:33:20;40.67;39.53;42.12;;
67320;Laerm;57665;51.436;5.978;2023-03-14T00:33:36;40.78;39.38;43.31;;
67320;Laerm;57665;51.436;5.978;2023-03-14T00:33:47;40.54;39.43;41.90;;
67320;Laerm;57665;51.436;5.978;2023-03-14T00:33:57;40.91;39.63;47.10;;
67320;Laerm;57665;51.436;5.978;2023-03-14T00:34:07;40.95;39.93;44.09;;
67320;Laerm;57665;51.436;5.978;2023-03-14T00:34:17;40.81;39.71;47.04;;
67320;Laerm;57665;51.436;5.978;2023-03-14T00:34:31;40.32;39.13;41.62;;
67320;Laerm;57665;51.436;5.978;2023-03-14T00:34:44;40.54;39.19;47.86;;
67320;Laerm;57665;51.436;5.978;2023-03-14T00:34:54;40.38;39.17;43.83;;
67320;Laerm;57665;51.436;5.978;2023-03-14T00:35:04;40.45;39.33;43.64;;
67320;Laerm;57665;51.436;5.978;2023-03-14T00:35:15;40.36;39.26;42.13;;
67320;Laerm;57665;51.436;5.978;2023-03-14T00:35:25;40.32;38.91;43.14;;
67320;Laerm;57665;51.436;5.978;2023-03-14T00:35:35;40.72;39.11;48.94;;
67320;Laerm;57665;51.436;5.978;2023-03-14T00:35:55;40.16;39.08;41.73;;
67320;Laerm;57665;51.436;5.978;2023-03-14T00:36:07;40.31;39.00;47.04;;
67320;Laerm;57665;51.436;5.978;2023-03-14T00:36:19;40.09;38.71;40.95;;
67320;Laerm;57665;51.436;5.978;2023-03-14T00:36:32;40.05;39.03;41.05;;
67320;Laerm;57665;51.436;5.978;2023-03-14T00:36:42;40.07;39.09;40.98;;
67320;Laerm;57665;51.436;5.978;2023-03-14T00:36:55;40.42;39.13;48.18;;
67320;Laerm;57665;51.436;5.978;2023-03-14T00:37:11;41.83;39.53;52.28;;
67320;Laerm;57665;51.436;5.978;2023-03-14T00:37:21;41.23;39.13;50.54;;
67320;Laerm;57665;51.436;5.978;2023-03-14T00:37:32;42.20;39.44;52.69;;
67320;Laerm;57665;51.436;5.978;2023-03-14T00:37:42;40.05;38.96;41.07;;
67320;Laerm;57665;51.436;5.978;2023-03-14T00:37:52;40.07;38.88;41.16;;
67320;Laerm;57665;51.436;5.978;2023-03-14T00:38:05;40.26;39.30;41.28;;
67320;Laerm;57665;51.436;5.978;2023-03-14T00:38:15;40.67;39.00;47.75;;
67320;Laerm;57665;51.436;5.978;2023-03-14T00:38:26;40.20;38.73;41.51;;
67320;Laerm;57665;51.436;5.978;2023-03-14T00:38:36;40.42;39.02;44.18;;
67320;Laerm;57665;51.436;5.978;2023-03-14T00:38:48;40.15;39.05;42.90;;
67320;Laerm;57665;51.436;5.978;2023-03-14T00:38:58;40.12;39.10;41.04;;
67320;Laerm;57665;51.436;5.978;2023-03-14T00:39:08;40.08;38.61;41.27;;
67320;Laerm;57665;51.436;5.978;2023-03-14T00:39:19;40.15;39.11;41.37;;
67320;Laerm;57665;51.436;5.978;2023-03-14T00:39:29;40.30;39.10;44.29;;
67320;Laerm;57665;51.436;5.978;2023-03-14T00:39:39;40.20;39.09;41.20;;
67320;Laerm;57665;51.436;5.978;2023-03-14T00:39:51;40.31;39.13;41.38;;
67320;Laerm;57665;51.436;5.978;2023-03-14T00:40:04;40.41;39.26;46.27;;
67320;Laerm;57665;51.436;5.978;2023-03-14T00:40:16;40.76;39.25;45.79;;
67320;Laerm;57665;51.436;5.978;2023-03-14T00:40:26;41.00;39.48;49.83;;
67320;Laerm;57665;51.436;5.978;2023-03-14T00:40:38;40.63;38.98;46.56;;
67320;Laerm;57665;51.436;5.978;2023-03-14T00:40:48;40.26;39.15;43.95;;
67320;Laerm;57665;51.436;5.978;2023-03-14T00:40:59;40.12;39.16;41.06;;
67320;Laerm;57665;51.436;5.978;2023-03-14T00:41:13;40.58;38.82;51.95;;
67320;Laerm;57665;51.436;5.978;2023-03-14T00:41:24;41.37;39.30;48.64;;
67320;Laerm;57665;51.436;5.978;2023-03-14T00:41:34;40.49;39.22;44.34;;
67320;Laerm;57665;51.436;5.978;2023-03-14T00:41:44;40.87;39.31;46.86;;
67320;Laerm;57665;51.436;5.978;2023-03-14T00:41:55;40.29;39.02;46.05;;
67320;Laerm;57665;51.436;5.978;2023-03-14T00:42:05;40.26;39.19;42.23;;
67320;Laerm;57665;51.436;5.978;2023-03-14T00:42:15;40.56;39.27;41.65;;
67320;Laerm;57665;51.436;5.978;2023-03-14T00:42:25;40.58;39.25;41.94;;
67320;Laerm;57665;51.436;5.978;2023-03-14T00:42:36;44.91;39.87;57.71;;
67320;Laerm;57665;51.436;5.978;2023-03-14T00:42:46;42.57;40.19;52.84;;
67320;Laerm;57665;51.436;5.978;2023-03-14T00:42:56;40.55;39.41;41.85;;
67320;Laerm;57665;51.436;5.978;2023-03-14T00:43:06;40.92;39.36;42.07;;
67320;Laerm;57665;51.436;5.978;2023-03-14T00:43:17;40.73;39.62;42.31;;
67320;Laerm;57665;51.436;5.978;2023-03-14T00:43:27;40.34;39.17;41.39;;
67320;Laerm;57665;51.436;5.978;2023-03-14T00:43:37;40.34;39.35;42.26;;
67320;Laerm;57665;51.436;5.978;2023-03-14T00:43:48;40.16;39.06;41.15;;
67320;Laerm;57665;51.436;5.978;2023-03-14T00:43:58;40.40;38.85;48.44;;
67320;Laerm;57665;51.436;5.978;2023-03-14T00:44:09;42.47;39.51;50.53;;
67320;Laerm;57665;51.436;5.978;2023-03-14T00:44:19;41.74;40.40;49.56;;
67320;Laerm;57665;51.436;5.978;2023-03-14T00:44:29;47.03;40.43;58.59;;
67320;Laerm;57665;51.436;5.978;2023-03-14T00:44:39;43.04;40.64;50.65;;
67320;Laerm;57665;51.436;5.978;2023-03-14T00:44:50;43.16;39.93;53.75;;
67320;Laerm;57665;51.436;5.978;2023-03-14T00:45:00;41.09;39.79;46.48;;
67320;Laerm;57665;51.436;5.978;2023-03-14T00:45:10;41.23;39.45;45.94;;
67320;Laerm;57665;51.436;5.978;2023-03-14T00:45:20;40.44;39.40;41.90;;
67320;Laerm;57665;51.436;5.978;2023-03-14T00:45:31;40.25;39.25;41.36;;
67320;Laerm;57665;51.436;5.978;2023-03-14T00:45:41;40.24;39.40;42.36;;
67320;Laerm;57665;51.436;5.978;2023-03-14T00:45:51;40.14;39.09;41.55;;
67320;Laerm;57665;51.436;5.978;2023-03-14T00:46:02;40.18;39.24;41.44;;
67320;Laerm;57665;51.436;5.978;2023-03-14T00:46:12;40.21;39.16;41.36;;
67320;Laerm;57665;51.436;5.978;2023-03-14T00:46:22;40.07;39.00;41.28;;
67320;Laerm;57665;51.436;5.978;2023-03-14T00:46:33;40.15;39.05;42.06;;
67320;Laerm;57665;51.436;5.978;2023-03-14T00:46:45;40.00;38.62;40.90;;
67320;Laerm;57665;51.436;5.978;2023-03-14T00:46:56;40.02;38.86;41.50;;
67320;Laerm;57665;51.436;5.978;2023-03-14T00:47:07;41.02;39.16;49.78;;
67320;Laerm;57665;51.436;5.978;2023-03-14T00:47:20;40.18;39.17;42.34;;
67320;Laerm;57665;51.436;5.978;2023-03-14T00:47:30;40.16;39.14;43.36;;
67320;Laerm;57665;51.436;5.978;2023-03-14T00:47:40;40.16;39.13;44.77;;
67320;Laerm;57665;51.436;5.978;2023-03-14T00:47:55;40.38;39.03;49.72;;
67320;Laerm;57665;51.436;5.978;2023-03-14T00:48:05;40.39;39.10;42.03;;
67320;Laerm;57665;51.436;5.978;2023-03-14T00:48:16;40.21;39.08;42.11;;
67320;Laerm;57665;51.436;5.978;2023-03-14T00:48:38;40.19;38.68;41.32;;
67320;Laerm;57665;51.436;5.978;2023-03-14T00:48:49;40.25;39.14;41.20;;
67320;Laerm;57665;51.436;5.978;2023-03-14T00:49:05;40.25;38.95;41.39;;
67320;Laerm;57665;51.436;5.978;2023-03-14T00:49:15;40.54;39.41;41.99;;
67320;Laerm;57665;51.436;5.978;2023-03-14T00:49:26;40.31;39.24;41.94;;
67320;Laerm;57665;51.436;5.978;2023-03-14T00:49:42;40.38;38.93;42.85;;
67320;Laerm;57665;51.436;5.978;2023-03-14T00:49:53;42.51;39.57;54.07;;
67320;Laerm;57665;51.436;5.978;2023-03-14T00:50:03;41.85;40.18;47.90;;
67320;Laerm;57665;51.436;5.978;2023-03-14T00:50:13;42.82;40.25;53.13;;
67320;Laerm;57665;51.436;5.978;2023-03-14T00:50:24;41.58;39.84;45.88;;
67320;Laerm;57665;51.436;5.978;2023-03-14T00:50:34;50.81;41.66;63.52;;
67320;Laerm;57665;51.436;5.978;2023-03-14T00:50:44;66.08;56.89;70.49;;
67320;Laerm;57665;51.436;5.978;2023-03-14T00:50:55;65.25;61.61;68.36;;
67320;Laerm;57665;51.436;5.978;2023-03-14T00:51:06;58.76;41.01;66.11;;
67320;Laerm;57665;51.436;5.978;2023-03-14T00:51:16;41.04;39.82;42.77;;
67320;Laerm;57665;51.436;5.978;2023-03-14T00:51:26;40.63;39.20;43.44;;
67320;Laerm;57665;51.436;5.978;2023-03-14T00:51:37;41.17;39.96;43.89;;
67320;Laerm;57665;51.436;5.978;2023-03-14T00:51:47;48.97;39.98;62.11;;
67320;Laerm;57665;51.436;5.978;2023-03-14T00:52:00;49.62;40.42;63.65;;
67320;Laerm;57665;51.436;5.978;2023-03-14T00:52:11;40.95;39.71;42.92;;
67320;Laerm;57665;51.436;5.978;2023-03-14T00:52:21;40.63;39.38;42.69;;
67320;Laerm;57665;51.436;5.978;2023-03-14T00:52:46;40.34;39.12;44.36;;
67320;Laerm;57665;51.436;5.978;2023-03-14T00:52:58;40.39;39.31;41.46;;
67320;Laerm;57665;51.436;5.978;2023-03-14T00:53:09;40.67;39.52;42.41;;
67320;Laerm;57665;51.436;5.978;2023-03-14T00:53:19;41.00;40.01;44.15;;
67320;Laerm;57665;51.436;5.978;2023-03-14T00:53:29;41.05;39.77;42.38;;
67320;Laerm;57665;51.436;5.978;2023-03-14T00:53:39;40.46;39.42;42.39;;
67320;Laerm;57665;51.436;5.978;2023-03-14T00:53:50;40.68;39.49;42.41;;
67320;Laerm;57665;51.436;5.978;2023-03-14T00:54:00;40.61;39.42;43.95;;
67320;Laerm;57665;51.436;5.978;2023-03-14T00:54:10;40.48;39.19;42.12;;
67320;Laerm;57665;51.436;5.978;2023-03-14T00:54:21;41.29;39.99;44.86;;
67320;Laerm;57665;51.436;5.978;2023-03-14T00:54:31;42.06;39.50;48.26;;
67320;Laerm;57665;51.436;5.978;2023-03-14T00:54:41;46.11;39.64;59.43;;
67320;Laerm;57665;51.436;5.978;2023-03-14T00:54:52;43.02;40.14;53.07;;
67320;Laerm;57665;51.436;5.978;2023-03-14T00:55:02;43.26;39.78;55.51;;
67320;Laerm;57665;51.436;5.978;2023-03-14T00:55:12;41.37;39.62;47.74;;
67320;Laerm;57665;51.436;5.978;2023-03-14T00:55:23;67.99;43.04;74.50;;
67320;Laerm;57665;51.436;5.978;2023-03-14T00:55:36;66.05;63.37;70.52;;
67320;Laerm;57665;51.436;5.978;2023-03-14T00:55:46;64.14;47.09;68.95;;
67320;Laerm;57665;51.436;5.978;2023-03-14T00:55:56;44.90;41.16;50.05;;
67320;Laerm;57665;51.436;5.978;2023-03-14T00:56:07;41.31;39.51;44.23;;
67320;Laerm;57665;51.436;5.978;2023-03-14T00:56:18;40.40;39.23;41.66;;
67320;Laerm;57665;51.436;5.978;2023-03-14T00:56:29;40.33;38.90;41.39;;
67320;Laerm;57665;51.436;5.978;2023-03-14T00:56:52;40.35;39.02;46.28;;
67320;Laerm;57665;51.436;5.978;2023-03-14T00:57:24;40.38;39.32;41.47;;
67320;Laerm;57665;51.436;5.978;2023-03-14T00:57:33;40.74;39.37;50.37;;
67320;Laerm;57665;51.436;5.978;2023-03-14T00:57:49;41.09;39.48;48.33;;
67320;Laerm;57665;51.436;5.978;2023-03-14T00:58:00;40.81;39.25;48.11;;
67320;Laerm;57665;51.436;5.978;2023-03-14T00:58:11;40.77;39.08;45.60;;
67320;Laerm;57665;51.436;5.978;2023-03-14T00:58:21;40.37;39.06;48.07;;
67320;Laerm;57665;51.436;5.978;2023-03-14T00:58:32;40.32;38.97;43.15;;
67320;Laerm;57665;51.436;5.978;2023-03-14T00:58:42;41.43;39.41;50.61;;
67320;Laerm;57665;51.436;5.978;2023-03-14T00:58:53;40.77;39.22;45.54;;
67320;Laerm;57665;51.436;5.978;2023-03-14T00:59:13;40.23;39.16;41.82;;
67320;Laerm;57665;51.436;5.978;2023-03-14T00:59:23;40.10;39.20;41.20;;
67320;Laerm;57665;51.436;5.978;2023-03-14T00:59:36;40.06;39.00;41.01;;
67320;Laerm;57665;51.436;5.978;2023-03-14T00:59:46;40.05;38.84;41.09;;
67320;Laerm;57665;51.436;5.978;2023-03-14T00:59:57;40.12;39.01;40.99;;
67320;Laerm;57665;51.436;5.978;2023-03-14T01:00:13;40.09;39.22;40.90;;
67320;Laerm;57665;51.436;5.978;2023-03-14T01:00:23;40.42;39.21;45.03;;
67320;Laerm;57665;51.436;5.978;2023-03-14T01:00:34;40.75;38.82;48.40;;
67320;Laerm;57665;51.436;5.978;2023-03-14T01:00:44;40.04;38.81;41.48;;
67320;Laerm;57665;51.436;5.978;2023-03-14T01:00:55;40.01;39.00;40.95;;
67320;Laerm;57665;51.436;5.978;2023-03-14T01:01:06;40.09;39.01;41.19;;
67320;Laerm;57665;51.436;5.978;2023-03-14T01:01:22;40.08;39.07;41.14;;
67320;Laerm;57665;51.436;5.978;2023-03-14T01:01:32;40.10;38.76;41.33;;
67320;Laerm;57665;51.436;5.978;2023-03-14T01:01:43;40.01;38.85;40.98;;
67320;Laerm;57665;51.436;5.978;2023-03-14T01:02:05;40.06;38.74;41.08;;
67320;Laerm;57665;51.436;5.978;2023-03-14T01:02:15;40.14;39.01;42.09;;
67320;Laerm;57665;51.436;5.978;2023-03-14T01:02:32;40.39;39.07;46.32;;
67320;Laerm;57665;51.436;5.978;2023-03-14T01:02:42;40.62;39.29;46.23;;
67320;Laerm;57665;51.436;5.978;2023-03-14T01:02:52;40.20;39.04;41.06;;
67320;Laerm;57665;51.436;5.978;2023-03-14T01:03:05;40.43;39.23;41.60;;
67320;Laerm;57665;51.436;5.978;2023-03-14T01:03:43;40.25;39.00;42.61;;
67320;Laerm;57665;51.436;5.978;2023-03-14T01:03:55;40.24;38.72;42.48;;
67320;Laerm;57665;51.436;5.978;2023-03-14T01:04:05;40.59;39.59;41.89;;
67320;Laerm;57665;51.436;5.978;2023-03-14T01:04:24;40.30;39.27;41.13;;
67320;Laerm;57665;51.436;5.978;2023-03-14T01:04:35;43.76;39.75;49.03;;
67320;Laerm;57665;51.436;5.978;2023-03-14T01:04:48;64.89;47.88;72.02;;
67320;Laerm;57665;51.436;5.978;2023-03-14T01:04:58;66.93;60.02;76.21;;
67320;Laerm;57665;51.436;5.978;2023-03-14T01:05:14;58.17;41.09;67.28;;
67320;Laerm;57665;51.436;5.978;2023-03-14T01:05:25;43.66;41.55;45.66;;
67320;Laerm;57665;51.436;5.978;2023-03-14T01:05:35;44.03;41.67;47.83;;
67320;Laerm;57665;51.436;5.978;2023-03-14T01:05:48;42.82;40.83;49.90;;
67320;Laerm;57665;51.436;5.978;2023-03-14T01:06:12;42.03;40.57;45.81;;
67320;Laerm;57665;51.436;5.978;2023-03-14T01:06:24;47.22;40.47;65.42;;
67320;Laerm;57665;51.436;5.978;2023-03-14T01:06:34;45.81;41.62;56.15;;
67320;Laerm;57665;51.436;5.978;2023-03-14T01:06:44;42.22;40.69;46.72;;